KBKV

Brooksville-Tampa Bay Regional Airport

Brooksville, Florida, USA
METAR KBKV 191453Z 36004KT 10SM BKN080 22/17 A3016 RMK AO2 SLP212 T02220172 53013
Observed Flight Rules
Nov-19 @ 14:53 UTC (47 minutes ago) Visual Flight Rules
Wind Visibility Clouds
360° at 4 knots 10 miles
  • Broken at 8,000' AGL
Temperatures Readings
Current 22°C / 72°F
Dewpoint 17°C / 63°F
Humidity 73%
Altimeter 30.16" Hg
Pressure 1021.2 hPa
Elevation 20
METAR KBKV 191453Z 36004KT 10SM BKN080 22/17 A3016 RMK AO2 SLP212 T02220172 53013
Observed Flight Rules
Nov-19 @ 14:53 UTC
(47 minutes ago)
VFR
Wind Visibility
360° at 4 knots 10 miles
Clouds
  • Broken at 8,000' AGL
Temperature Dewpoint
22°C / 72°F 17°C / 63°F
Humidity Altimeter Pressure
73% 30.16" Hg 1021.2 hPa